sensor_id;sensor_type;location;lat;lon;timestamp;pressure;altitude;pressure_sealevel;temperature;humidity
28004;BME280;15330;51.234;6.754;2022-11-20T00:01:45;100801.78;;;4.20;80.52
28004;BME280;15330;51.234;6.754;2022-11-20T00:04:10;100805.50;;;4.28;80.23
28004;BME280;15330;51.234;6.754;2022-11-20T00:06:40;100796.59;;;4.29;80.61
28004;BME280;15330;51.234;6.754;2022-11-20T00:09:05;100800.09;;;4.19;80.92
28004;BME280;15330;51.234;6.754;2022-11-20T00:11:31;100796.72;;;4.17;81.22
28004;BME280;15330;51.234;6.754;2022-11-20T00:13:59;100793.22;;;4.27;81.11
28004;BME280;15330;51.234;6.754;2022-11-20T00:16:27;100789.63;;;4.17;81.29
28004;BME280;15330;51.234;6.754;2022-11-20T00:18:53;100797.44;;;4.19;80.97
28004;BME280;15330;51.234;6.754;2022-11-20T00:21:26;100793.00;;;4.19;81.19
28004;BME280;15330;51.234;6.754;2022-11-20T00:23:54;100791.53;;;4.26;81.11
28004;BME280;15330;51.234;6.754;2022-11-20T00:26:20;100794.66;;;4.31;80.80
28004;BME280;15330;51.234;6.754;2022-11-20T00:28:52;100795.38;;;4.33;81.16
28004;BME280;15330;51.234;6.754;2022-11-20T00:31:18;100792.38;;;4.27;81.21
28004;BME280;15330;51.234;6.754;2022-11-20T00:33:44;100791.81;;;4.23;81.50
28004;BME280;15330;51.234;6.754;2022-11-20T00:36:12;100794.66;;;4.31;80.93
28004;BME280;15330;51.234;6.754;2022-11-20T00:38:38;100789.97;;;4.35;81.42
28004;BME280;15330;51.234;6.754;2022-11-20T00:41:06;100787.09;;;4.16;81.28
28004;BME280;15330;51.234;6.754;2022-11-20T00:43:32;100784.09;;;4.09;82.29
28004;BME280;15330;51.234;6.754;2022-11-20T00:46:12;100786.03;;;3.96;82.71
28004;BME280;15330;51.234;6.754;2022-11-20T00:48:38;100776.16;;;4.09;82.70
28004;BME280;15330;51.234;6.754;2022-11-20T00:51:04;100781.69;;;4.17;82.54
28004;BME280;15330;51.234;6.754;2022-11-20T00:53:29;100783.28;;;3.97;83.04
28004;BME280;15330;51.234;6.754;2022-11-20T00:55:57;100779.06;;;4.06;82.59
28004;BME280;15330;51.234;6.754;2022-11-20T00:58:23;100783.66;;;3.93;83.08
28004;BME280;15330;51.234;6.754;2022-11-20T01:00:49;100782.09;;;3.90;83.26
28004;BME280;15330;51.234;6.754;2022-11-20T01:03:16;100779.91;;;3.84;83.68
28004;BME280;15330;51.234;6.754;2022-11-20T01:05:41;100779.56;;;3.89;84.20
28004;BME280;15330;51.234;6.754;2022-11-20T01:08:07;100785.06;;;4.08;83.46
28004;BME280;15330;51.234;6.754;2022-11-20T01:10:32;100775.13;;;3.78;83.64
28004;BME280;15330;51.234;6.754;2022-11-20T01:12:58;100773.53;;;3.87;83.54
28004;BME280;15330;51.234;6.754;2022-11-20T01:15:42;100774.03;;;4.03;83.36
28004;BME280;15330;51.234;6.754;2022-11-20T01:18:07;100774.16;;;3.90;83.50
28004;BME280;15330;51.234;6.754;2022-11-20T01:20:36;100773.31;;;3.90;83.49
28004;BME280;15330;51.234;6.754;2022-11-20T01:25:37;100762.13;;;3.64;84.31
28004;BME280;15330;51.234;6.754;2022-11-20T01:28:02;100767.66;;;3.94;83.41
28004;BME280;15330;51.234;6.754;2022-11-20T01:30:28;100781.84;;;3.93;83.38
28004;BME280;15330;51.234;6.754;2022-11-20T01:32:55;100779.44;;;3.90;83.17
28004;BME280;15330;51.234;6.754;2022-11-20T01:35:20;100778.81;;;3.98;83.51
28004;BME280;15330;51.234;6.754;2022-11-20T01:37:45;100772.00;;;3.51;85.12
28004;BME280;15330;51.234;6.754;2022-11-20T01:40:11;100768.00;;;3.90;84.10
28004;BME280;15330;51.234;6.754;2022-11-20T01:42:36;100769.19;;;3.97;83.47
28004;BME280;15330;51.234;6.754;2022-11-20T01:48:04;100759.47;;;3.86;84.09
28004;BME280;15330;51.234;6.754;2022-11-20T01:50:30;100762.59;;;4.02;83.61
28004;BME280;15330;51.234;6.754;2022-11-20T01:53:02;100762.31;;;4.05;83.63
28004;BME280;15330;51.234;6.754;2022-11-20T01:55:37;100764.38;;;4.13;83.60
28004;BME280;15330;51.234;6.754;2022-11-20T01:58:05;100753.78;;;4.13;83.38
28004;BME280;15330;51.234;6.754;2022-11-20T02:00:31;100756.44;;;4.13;83.36
28004;BME280;15330;51.234;6.754;2022-11-20T02:02:59;100763.66;;;4.11;83.72
28004;BME280;15330;51.234;6.754;2022-11-20T02:05:30;100758.88;;;3.94;84.21
28004;BME280;15330;51.234;6.754;2022-11-20T02:07:59;100756.34;;;3.81;85.22
28004;BME280;15330;51.234;6.754;2022-11-20T02:10:27;100743.47;;;3.43;87.03
28004;BME280;15330;51.234;6.754;2022-11-20T02:12:53;100745.16;;;3.66;86.01
28004;BME280;15330;51.234;6.754;2022-11-20T02:15:37;100740.47;;;3.92;84.75
28004;BME280;15330;51.234;6.754;2022-11-20T02:18:03;100744.06;;;4.02;84.77
28004;BME280;15330;51.234;6.754;2022-11-20T02:20:29;100738.19;;;3.54;86.07
28004;BME280;15330;51.234;6.754;2022-11-20T02:22:58;100727.97;;;3.27;87.61
28004;BME280;15330;51.234;6.754;2022-11-20T02:25:26;100724.59;;;3.14;88.05
28004;BME280;15330;51.234;6.754;2022-11-20T02:27:52;100728.19;;;3.13;89.01
28004;BME280;15330;51.234;6.754;2022-11-20T02:30:18;100728.81;;;3.39;88.09
28004;BME280;15330;51.234;6.754;2022-11-20T02:32:43;100711.50;;;3.57;87.30
28004;BME280;15330;51.234;6.754;2022-11-20T02:35:09;100724.50;;;3.60;87.45
28004;BME280;15330;51.234;6.754;2022-11-20T02:37:37;100730.75;;;3.71;86.89
28004;BME280;15330;51.234;6.754;2022-11-20T02:40:04;100731.59;;;3.82;87.05
28004;BME280;15330;51.234;6.754;2022-11-20T02:42:29;100726.75;;;3.76;86.97
28004;BME280;15330;51.234;6.754;2022-11-20T02:44:55;100728.34;;;3.67;86.94
28004;BME280;15330;51.234;6.754;2022-11-20T02:47:20;100731.09;;;3.77;86.74
28004;BME280;15330;51.234;6.754;2022-11-20T02:49:45;100731.47;;;3.84;86.73
28004;BME280;15330;51.234;6.754;2022-11-20T02:52:11;100710.41;;;3.82;86.46
28004;BME280;15330;51.234;6.754;2022-11-20T02:54:36;100714.47;;;3.86;86.08
28004;BME280;15330;51.234;6.754;2022-11-20T02:57:01;100724.59;;;3.92;86.29
28004;BME280;15330;51.234;6.754;2022-11-20T02:59:27;100719.03;;;3.95;85.63
28004;BME280;15330;51.234;6.754;2022-11-20T03:01:52;100726.84;;;3.97;85.16
28004;BME280;15330;51.234;6.754;2022-11-20T03:04:17;100720.25;;;3.91;85.75
28004;BME280;15330;51.234;6.754;2022-11-20T03:06:43;100728.31;;;4.01;85.65
28004;BME280;15330;51.234;6.754;2022-11-20T03:09:08;100728.78;;;3.95;85.64
28004;BME280;15330;51.234;6.754;2022-11-20T03:11:34;100718.81;;;3.98;85.18
28004;BME280;15330;51.234;6.754;2022-11-20T03:14:03;100717.47;;;4.04;85.24
28004;BME280;15330;51.234;6.754;2022-11-20T03:16:31;100721.22;;;3.90;85.57
28004;BME280;15330;51.234;6.754;2022-11-20T03:18:56;100712.56;;;3.88;85.35
28004;BME280;15330;51.234;6.754;2022-11-20T03:21:22;100724.22;;;3.97;85.78
28004;BME280;15330;51.234;6.754;2022-11-20T03:23:47;100723.75;;;3.92;85.41
28004;BME280;15330;51.234;6.754;2022-11-20T03:26:16;100719.66;;;3.77;85.84
28004;BME280;15330;51.234;6.754;2022-11-20T03:28:48;100714.88;;;3.71;85.37
28004;BME280;15330;51.234;6.754;2022-11-20T03:31:16;100723.28;;;3.76;86.30
28004;BME280;15330;51.234;6.754;2022-11-20T03:33:42;100724.72;;;3.80;85.91
28004;BME280;15330;51.234;6.754;2022-11-20T03:36:10;100719.09;;;3.73;85.72
28004;BME280;15330;51.234;6.754;2022-11-20T03:38:36;100720.16;;;3.71;86.06
28004;BME280;15330;51.234;6.754;2022-11-20T03:41:10;100711.75;;;3.65;86.23
28004;BME280;15330;51.234;6.754;2022-11-20T03:43:36;100712.69;;;3.76;86.10
28004;BME280;15330;51.234;6.754;2022-11-20T03:46:02;100708.63;;;3.72;86.21
28004;BME280;15330;51.234;6.754;2022-11-20T03:48:28;100715.44;;;3.85;86.08
28004;BME280;15330;51.234;6.754;2022-11-20T03:51:15;100714.88;;;3.82;86.43
28004;BME280;15330;51.234;6.754;2022-11-20T03:53:42;100710.03;;;3.87;85.99
28004;BME280;15330;51.234;6.754;2022-11-20T03:56:09;100714.13;;;3.91;86.21
28004;BME280;15330;51.234;6.754;2022-11-20T03:58:35;100715.69;;;3.93;85.95
28004;BME280;15330;51.234;6.754;2022-11-20T04:01:21;100715.44;;;3.85;86.54
28004;BME280;15330;51.234;6.754;2022-11-20T04:03:47;100711.25;;;3.94;85.99
28004;BME280;15330;51.234;6.754;2022-11-20T04:06:22;100701.16;;;3.77;86.19
28004;BME280;15330;51.234;6.754;2022-11-20T04:08:48;100708.31;;;3.97;86.00
28004;BME280;15330;51.234;6.754;2022-11-20T04:11:14;100711.47;;;3.91;86.45
28004;BME280;15330;51.234;6.754;2022-11-20T04:13:41;100706.44;;;3.88;86.40
28004;BME280;15330;51.234;6.754;2022-11-20T04:16:08;100700.06;;;3.90;85.90
28004;BME280;15330;51.234;6.754;2022-11-20T04:18:34;100704.41;;;3.80;86.01
28004;BME280;15330;51.234;6.754;2022-11-20T04:21:00;100716.16;;;3.87;85.50
28004;BME280;15330;51.234;6.754;2022-11-20T04:23:26;100715.22;;;3.88;85.29
28004;BME280;15330;51.234;6.754;2022-11-20T04:25:51;100711.63;;;3.78;85.38
28004;BME280;15330;51.234;6.754;2022-11-20T04:28:16;100710.53;;;3.36;86.33
28004;BME280;15330;51.234;6.754;2022-11-20T04:30:42;100713.66;;;3.63;85.94
28004;BME280;15330;51.234;6.754;2022-11-20T04:33:07;100701.53;;;3.50;85.66
28004;BME280;15330;51.234;6.754;2022-11-20T04:35:36;100706.84;;;3.50;86.55
28004;BME280;15330;51.234;6.754;2022-11-20T04:38:02;100710.44;;;3.60;85.93
28004;BME280;15330;51.234;6.754;2022-11-20T04:40:28;100710.31;;;3.39;86.37
28004;BME280;15330;51.234;6.754;2022-11-20T04:42:55;100712.97;;;3.50;85.77
28004;BME280;15330;51.234;6.754;2022-11-20T04:45:22;100713.94;;;3.49;85.63
28004;BME280;15330;51.234;6.754;2022-11-20T04:47:47;100713.41;;;3.00;86.99
28004;BME280;15330;51.234;6.754;2022-11-20T04:50:13;100715.47;;;3.29;86.80
28004;BME280;15330;51.234;6.754;2022-11-20T04:52:38;100706.09;;;3.25;85.85
28004;BME280;15330;51.234;6.754;2022-11-20T04:55:04;100711.28;;;3.49;85.62
28004;BME280;15330;51.234;6.754;2022-11-20T04:57:29;100712.13;;;3.61;85.13
28004;BME280;15330;51.234;6.754;2022-11-20T04:59:54;100710.31;;;3.28;86.27
28004;BME280;15330;51.234;6.754;2022-11-20T05:02:20;100709.47;;;3.27;85.94
28004;BME280;15330;51.234;6.754;2022-11-20T05:04:45;100701.16;;;3.54;84.94
28004;BME280;15330;51.234;6.754;2022-11-20T05:07:11;100707.56;;;3.41;85.29
28004;BME280;15330;51.234;6.754;2022-11-20T05:09:36;100707.78;;;3.60;84.91
28004;BME280;15330;51.234;6.754;2022-11-20T05:12:01;100713.31;;;3.57;84.92
28004;BME280;15330;51.234;6.754;2022-11-20T05:14:27;100714.00;;;4.03;84.59
28004;BME280;15330;51.234;6.754;2022-11-20T05:16:52;100704.47;;;4.44;83.99
28004;BME280;15330;51.234;6.754;2022-11-20T05:19:18;100702.91;;;4.41;83.30
28004;BME280;15330;51.234;6.754;2022-11-20T05:21:43;100714.91;;;4.57;82.20
28004;BME280;15330;51.234;6.754;2022-11-20T05:24:08;100703.19;;;4.59;81.45
28004;BME280;15330;51.234;6.754;2022-11-20T05:26:34;100695.13;;;4.61;80.76
28004;BME280;15330;51.234;6.754;2022-11-20T05:28:59;100710.22;;;4.49;81.02
28004;BME280;15330;51.234;6.754;2022-11-20T05:31:25;100695.97;;;4.61;80.39
28004;BME280;15330;51.234;6.754;2022-11-20T05:33:50;100702.50;;;4.25;80.44
28004;BME280;15330;51.234;6.754;2022-11-20T05:36:16;100714.34;;;4.42;81.63
28004;BME280;15330;51.234;6.754;2022-11-20T05:38:42;100701.34;;;4.71;80.75
28004;BME280;15330;51.234;6.754;2022-11-20T05:41:14;100697.78;;;4.61;80.21
28004;BME280;15330;51.234;6.754;2022-11-20T05:43:43;100704.31;;;4.25;80.94
28004;BME280;15330;51.234;6.754;2022-11-20T05:46:10;100712.31;;;4.02;81.50
28004;BME280;15330;51.234;6.754;2022-11-20T05:48:39;100709.78;;;3.90;81.06
28004;BME280;15330;51.234;6.754;2022-11-20T05:51:06;100703.91;;;3.86;82.19
28004;BME280;15330;51.234;6.754;2022-11-20T05:53:33;100704.28;;;3.93;82.12
28004;BME280;15330;51.234;6.754;2022-11-20T05:56:07;100692.22;;;3.89;82.05
28004;BME280;15330;51.234;6.754;2022-11-20T05:58:35;100693.31;;;3.86;81.75
28004;BME280;15330;51.234;6.754;2022-11-20T06:01:09;100698.16;;;3.59;83.38
28004;BME280;15330;51.234;6.754;2022-11-20T06:03:35;100692.78;;;3.38;84.04
28004;BME280;15330;51.234;6.754;2022-11-20T06:06:02;100701.03;;;3.67;83.84
28004;BME280;15330;51.234;6.754;2022-11-20T06:08:28;100697.75;;;3.86;83.92
28004;BME280;15330;51.234;6.754;2022-11-20T06:10:54;100699.13;;;3.80;83.52
28004;BME280;15330;51.234;6.754;2022-11-20T06:13:19;100701.63;;;3.82;84.05
28004;BME280;15330;51.234;6.754;2022-11-20T06:15:51;100691.50;;;3.87;84.25
28004;BME280;15330;51.234;6.754;2022-11-20T06:18:17;100697.19;;;3.71;84.93
28004;BME280;15330;51.234;6.754;2022-11-20T06:20:43;100697.66;;;3.87;84.74
28004;BME280;15330;51.234;6.754;2022-11-20T06:23:08;100693.94;;;3.79;84.59
28004;BME280;15330;51.234;6.754;2022-11-20T06:25:38;100697.56;;;3.55;86.31
28004;BME280;15330;51.234;6.754;2022-11-20T06:28:03;100699.97;;;3.69;86.13
28004;BME280;15330;51.234;6.754;2022-11-20T06:30:29;100697.06;;;3.84;85.79
28004;BME280;15330;51.234;6.754;2022-11-20T06:32:54;100685.72;;;4.04;84.61
28004;BME280;15330;51.234;6.754;2022-11-20T06:35:19;100704.28;;;3.93;84.65
28004;BME280;15330;51.234;6.754;2022-11-20T06:37:45;100705.19;;;4.14;84.63
28004;BME280;15330;51.234;6.754;2022-11-20T06:40:10;100705.88;;;4.16;85.91
28004;BME280;15330;51.234;6.754;2022-11-20T06:42:36;100696.50;;;4.97;86.21
28004;BME280;15330;51.234;6.754;2022-11-20T06:45:02;100702.31;;;5.42;83.80
28004;BME280;15330;51.234;6.754;2022-11-20T06:47:27;100713.06;;;5.71;80.85
28004;BME280;15330;51.234;6.754;2022-11-20T06:49:52;100705.78;;;5.73;79.70
28004;BME280;15330;51.234;6.754;2022-11-20T06:52:18;100699.59;;;5.63;78.65
28004;BME280;15330;51.234;6.754;2022-11-20T06:54:44;100701.03;;;4.32;81.94
28004;BME280;15330;51.234;6.754;2022-11-20T06:57:09;100687.13;;;4.08;83.84
28004;BME280;15330;51.234;6.754;2022-11-20T06:59:34;100699.53;;;4.71;81.32
28004;BME280;15330;51.234;6.754;2022-11-20T07:02:00;100701.41;;;5.01;80.74
28004;BME280;15330;51.234;6.754;2022-11-20T07:04:25;100716.44;;;5.22;80.01
28004;BME280;15330;51.234;6.754;2022-11-20T07:06:50;100712.03;;;5.32;78.68
28004;BME280;15330;51.234;6.754;2022-11-20T07:09:16;100711.72;;;4.63;80.20
28004;BME280;15330;51.234;6.754;2022-11-20T07:11:41;100720.28;;;4.34;81.43
28004;BME280;15330;51.234;6.754;2022-11-20T07:14:06;100732.81;;;4.32;82.51
28004;BME280;15330;51.234;6.754;2022-11-20T07:16:32;100733.94;;;4.51;81.66
28004;BME280;15330;51.234;6.754;2022-11-20T07:18:57;100720.84;;;4.70;81.13
28004;BME280;15330;51.234;6.754;2022-11-20T07:21:22;100724.06;;;4.53;81.82
28004;BME280;15330;51.234;6.754;2022-11-20T07:23:48;100721.22;;;4.45;83.58
28004;BME280;15330;51.234;6.754;2022-11-20T07:26:13;100713.78;;;4.27;82.83
28004;BME280;15330;51.234;6.754;2022-11-20T07:28:38;100727.56;;;4.10;84.03
28004;BME280;15330;51.234;6.754;2022-11-20T07:31:04;100718.19;;;3.95;83.18
28004;BME280;15330;51.234;6.754;2022-11-20T07:33:32;100722.50;;;4.50;82.23
28004;BME280;15330;51.234;6.754;2022-11-20T07:36:00;100727.94;;;4.69;82.17
28004;BME280;15330;51.234;6.754;2022-11-20T07:38:26;100730.38;;;5.44;81.24
28004;BME280;15330;51.234;6.754;2022-11-20T07:40:56;100720.97;;;5.61;80.27
28004;BME280;15330;51.234;6.754;2022-11-20T07:43:23;100722.34;;;5.56;79.39
28004;BME280;15330;51.234;6.754;2022-11-20T07:45:48;100722.03;;;5.19;79.49
28004;BME280;15330;51.234;6.754;2022-11-20T07:48:14;100703.63;;;4.96;80.15
28004;BME280;15330;51.234;6.754;2022-11-20T07:50:39;100699.44;;;4.62;81.21
28004;BME280;15330;51.234;6.754;2022-11-20T07:53:05;100702.75;;;4.75;81.87
28004;BME280;15330;51.234;6.754;2022-11-20T07:55:31;100713.88;;;4.90;81.26
28004;BME280;15330;51.234;6.754;2022-11-20T07:57:56;100711.28;;;4.78;80.51
28004;BME280;15330;51.234;6.754;2022-11-20T08:00:23;100709.50;;;4.47;81.59
28004;BME280;15330;51.234;6.754;2022-11-20T08:02:48;100705.13;;;4.78;80.72
28004;BME280;15330;51.234;6.754;2022-11-20T08:05:14;100700.19;;;4.32;81.70
28004;BME280;15330;51.234;6.754;2022-11-20T08:07:41;100701.84;;;4.65;80.74
28004;BME280;15330;51.234;6.754;2022-11-20T08:10:08;100691.47;;;4.41;81.76
28004;BME280;15330;51.234;6.754;2022-11-20T08:12:34;100687.38;;;4.37;82.16
28004;BME280;15330;51.234;6.754;2022-11-20T08:15:18;100690.34;;;4.55;81.70
28004;BME280;15330;51.234;6.754;2022-11-20T08:17:43;100698.97;;;4.36;81.91
28004;BME280;15330;51.234;6.754;2022-11-20T08:20:09;100689.75;;;4.51;81.95
28004;BME280;15330;51.234;6.754;2022-11-20T08:22:35;100699.03;;;4.14;83.03
28004;BME280;15330;51.234;6.754;2022-11-20T08:25:00;100701.25;;;4.29;83.29
28004;BME280;15330;51.234;6.754;2022-11-20T08:27:26;100707.50;;;4.39;83.98
28004;BME280;15330;51.234;6.754;2022-11-20T08:29:51;100716.16;;;4.41;84.42
28004;BME280;15330;51.234;6.754;2022-11-20T08:32:16;100704.69;;;4.52;83.56
28004;BME280;15330;51.234;6.754;2022-11-20T08:34:42;100708.66;;;4.47;84.12
28004;BME280;15330;51.234;6.754;2022-11-20T08:37:07;100701.84;;;4.65;83.87
28004;BME280;15330;51.234;6.754;2022-11-20T08:39:33;100720.69;;;4.51;83.70
28004;BME280;15330;51.234;6.754;2022-11-20T08:41:58;100714.34;;;4.74;83.02
28004;BME280;15330;51.234;6.754;2022-11-20T08:44:24;100712.91;;;4.70;83.09
28004;BME280;15330;51.234;6.754;2022-11-20T08:46:49;100717.97;;;4.41;84.21
28004;BME280;15330;51.234;6.754;2022-11-20T08:49:15;100714.44;;;4.09;86.13
28004;BME280;15330;51.234;6.754;2022-11-20T08:51:41;100703.03;;;4.40;85.01
28004;BME280;15330;51.234;6.754;2022-11-20T08:54:07;100704.31;;;4.77;83.91
28004;BME280;15330;51.234;6.754;2022-11-20T08:56:33;100709.28;;;5.12;82.81
28004;BME280;15330;51.234;6.754;2022-11-20T08:58:58;100716.94;;;4.85;83.79
28004;BME280;15330;51.234;6.754;2022-11-20T09:01:27;100721.81;;;5.10;86.53
28004;BME280;15330;51.234;6.754;2022-11-20T09:03:55;100721.03;;;4.99;83.69
28004;BME280;15330;51.234;6.754;2022-11-20T09:06:21;100721.22;;;4.45;86.00
28004;BME280;15330;51.234;6.754;2022-11-20T09:08:47;100713.25;;;4.45;83.88
28004;BME280;15330;51.234;6.754;2022-11-20T09:11:12;100707.72;;;4.36;84.53
28004;BME280;15330;51.234;6.754;2022-11-20T09:13:38;100705.72;;;4.29;85.11
28004;BME280;15330;51.234;6.754;2022-11-20T09:16:08;100702.53;;;4.46;83.85
28004;BME280;15330;51.234;6.754;2022-11-20T09:18:34;100703.88;;;4.40;84.69
28004;BME280;15330;51.234;6.754;2022-11-20T09:21:10;100699.00;;;4.25;84.24
28004;BME280;15330;51.234;6.754;2022-11-20T09:23:36;100681.59;;;4.43;83.59
28004;BME280;15330;51.234;6.754;2022-11-20T09:26:07;100681.72;;;4.10;85.52
28004;BME280;15330;51.234;6.754;2022-11-20T09:28:33;100690.25;;;4.13;85.83
28004;BME280;15330;51.234;6.754;2022-11-20T09:30:59;100678.13;;;4.42;85.08
28004;BME280;15330;51.234;6.754;2022-11-20T09:33:25;100676.19;;;4.45;85.74
28004;BME280;15330;51.234;6.754;2022-11-20T09:35:50;100678.75;;;4.35;86.55
28004;BME280;15330;51.234;6.754;2022-11-20T09:38:18;100680.63;;;4.12;86.38
28004;BME280;15330;51.234;6.754;2022-11-20T09:40:49;100683.66;;;4.39;85.44
28004;BME280;15330;51.234;6.754;2022-11-20T09:44:10;100678.72;;;4.46;84.78
28004;BME280;15330;51.234;6.754;2022-11-20T09:54:39;100693.78;;;4.66;81.77
28004;BME280;15330;51.234;6.754;2022-11-20T09:57:11;100669.75;;;3.94;81.99
28004;BME280;15330;51.234;6.754;2022-11-20T09:59:43;100683.72;;;4.17;82.78
28004;BME280;15330;51.234;6.754;2022-11-20T10:04:53;100685.75;;;4.36;82.61
28004;BME280;15330;51.234;6.754;2022-11-20T10:07:23;100690.69;;;4.29;82.69
28004;BME280;15330;51.234;6.754;2022-11-20T10:09:53;100679.22;;;4.61;81.35
28004;BME280;15330;51.234;6.754;2022-11-20T10:15:36;100673.31;;;4.36;82.49
28004;BME280;15330;51.234;6.754;2022-11-20T10:18:16;100673.59;;;4.54;81.96
28004;BME280;15330;51.234;6.754;2022-11-20T10:21:09;100671.94;;;4.21;82.54
28004;BME280;15330;51.234;6.754;2022-11-20T10:26:36;100652.19;;;4.25;82.24
28004;BME280;15330;51.234;6.754;2022-11-20T10:29:13;100643.38;;;4.36;82.43
28004;BME280;15330;51.234;6.754;2022-11-20T10:31:45;100645.28;;;4.34;82.10
28004;BME280;15330;51.234;6.754;2022-11-20T10:34:29;100635.13;;;4.18;82.54
28004;BME280;15330;51.234;6.754;2022-11-20T10:37:11;100638.69;;;4.28;82.95
28004;BME280;15330;51.234;6.754;2022-11-20T10:39:47;100634.28;;;3.75;84.55
28004;BME280;15330;51.234;6.754;2022-11-20T10:42:22;100628.38;;;3.93;84.85
28004;BME280;15330;51.234;6.754;2022-11-20T10:45:00;100636.72;;;4.10;84.27
28004;BME280;15330;51.234;6.754;2022-11-20T10:47:30;100622.59;;;4.20;84.59
28004;BME280;15330;51.234;6.754;2022-11-20T10:49:58;100630.97;;;4.04;84.68
28004;BME280;15330;51.234;6.754;2022-11-20T10:52:37;100622.56;;;4.31;84.93
28004;BME280;15330;51.234;6.754;2022-11-20T10:57:54;100608.03;;;3.94;84.80
28004;BME280;15330;51.234;6.754;2022-11-20T11:00:24;100600.75;;;4.07;85.57
28004;BME280;15330;51.234;6.754;2022-11-20T11:02:54;100605.28;;;4.16;84.70
28004;BME280;15330;51.234;6.754;2022-11-20T11:07:46;100593.16;;;4.14;85.45
28004;BME280;15330;51.234;6.754;2022-11-20T11:10:24;100593.66;;;4.28;84.66
28004;BME280;15330;51.234;6.754;2022-11-20T11:12:51;100583.09;;;3.96;85.81
28004;BME280;15330;51.234;6.754;2022-11-20T11:15:38;100574.78;;;4.33;84.54
28004;BME280;15330;51.234;6.754;2022-11-20T11:18:03;100571.91;;;4.04;85.16
28004;BME280;15330;51.234;6.754;2022-11-20T11:20:29;100574.19;;;4.29;84.56
28004;BME280;15330;51.234;6.754;2022-11-20T11:22:59;100572.63;;;4.27;84.44
28004;BME280;15330;51.234;6.754;2022-11-20T11:27:53;100561.38;;;4.76;83.92
28004;BME280;15330;51.234;6.754;2022-11-20T11:30:22;100547.69;;;4.50;84.21
28004;BME280;15330;51.234;6.754;2022-11-20T11:32:48;100552.59;;;4.55;84.00
28004;BME280;15330;51.234;6.754;2022-11-20T11:35:27;100549.44;;;4.40;84.69
28004;BME280;15330;51.234;6.754;2022-11-20T11:38:03;100542.09;;;4.43;84.83
28004;BME280;15330;51.234;6.754;2022-11-20T11:40:31;100546.41;;;4.45;84.89
28004;BME280;15330;51.234;6.754;2022-11-20T11:43:00;100542.31;;;4.61;83.44
28004;BME280;15330;51.234;6.754;2022-11-20T11:45:27;100539.78;;;4.60;83.77
28004;BME280;15330;51.234;6.754;2022-11-20T11:47:55;100527.38;;;4.60;83.30
28004;BME280;15330;51.234;6.754;2022-11-20T11:50:24;100529.03;;;4.31;84.91
28004;BME280;15330;51.234;6.754;2022-11-20T11:53:09;100511.19;;;4.84;83.52
28004;BME280;15330;51.234;6.754;2022-11-20T11:55:48;100505.00;;;4.43;84.64
28004;BME280;15330;51.234;6.754;2022-11-20T12:04:05;100503.75;;;4.48;85.02
28004;BME280;15330;51.234;6.754;2022-11-20T12:06:38;100496.91;;;4.66;84.00
28004;BME280;15330;51.234;6.754;2022-11-20T12:09:10;100493.31;;;4.46;84.62
28004;BME280;15330;51.234;6.754;2022-11-20T12:11:51;100485.13;;;4.59;83.69
28004;BME280;15330;51.234;6.754;2022-11-20T12:14:34;100489.41;;;4.80;83.85
28004;BME280;15330;51.234;6.754;2022-11-20T12:17:01;100491.06;;;4.72;83.71
28004;BME280;15330;51.234;6.754;2022-11-20T12:19:29;100481.38;;;4.61;84.12
28004;BME280;15330;51.234;6.754;2022-11-20T12:27:34;100473.75;;;5.08;82.47
28004;BME280;15330;51.234;6.754;2022-11-20T12:30:15;100471.53;;;5.32;82.48
28004;BME280;15330;51.234;6.754;2022-11-20T12:33:12;100469.97;;;5.30;81.88
28004;BME280;15330;51.234;6.754;2022-11-20T12:35:53;100463.63;;;4.92;83.29
28004;BME280;15330;51.234;6.754;2022-11-20T12:38:53;100462.75;;;4.72;84.72
28004;BME280;15330;51.234;6.754;2022-11-20T12:50:36;100444.72;;;5.06;83.96
28004;BME280;15330;51.234;6.754;2022-11-20T12:53:12;100450.38;;;4.92;85.52
28004;BME280;15330;51.234;6.754;2022-11-20T13:01:40;100415.22;;;4.90;87.36
28004;BME280;15330;51.234;6.754;2022-11-20T13:04:23;100412.88;;;4.97;86.88
28004;BME280;15330;51.234;6.754;2022-11-20T13:06:54;100414.56;;;4.98;87.69
28004;BME280;15330;51.234;6.754;2022-11-20T13:09:20;100402.25;;;4.77;87.55
28004;BME280;15330;51.234;6.754;2022-11-20T13:12:07;100409.94;;;5.00;87.95
28004;BME280;15330;51.234;6.754;2022-11-20T13:14:44;100400.75;;;4.94;88.85
28004;BME280;15330;51.234;6.754;2022-11-20T13:17:36;100398.06;;;4.75;89.81
28004;BME280;15330;51.234;6.754;2022-11-20T13:20:06;100394.75;;;5.11;88.46
28004;BME280;15330;51.234;6.754;2022-11-20T13:22:46;100384.84;;;4.94;88.69
28004;BME280;15330;51.234;6.754;2022-11-20T13:25:28;100382.47;;;5.10;87.92
28004;BME280;15330;51.234;6.754;2022-11-20T13:27:55;100376.06;;;5.23;87.73
28004;BME280;15330;51.234;6.754;2022-11-20T13:30:27;100366.28;;;5.04;88.88
28004;BME280;15330;51.234;6.754;2022-11-20T13:33:00;100364.75;;;5.01;87.90
28004;BME280;15330;51.234;6.754;2022-11-20T13:40:34;100357.38;;;5.05;87.27
28004;BME280;15330;51.234;6.754;2022-11-20T13:43:34;100356.25;;;4.98;88.13
28004;BME280;15330;51.234;6.754;2022-11-20T13:46:01;100345.22;;;5.12;87.93
28004;BME280;15330;51.234;6.754;2022-11-20T13:48:32;100347.72;;;4.85;88.67
28004;BME280;15330;51.234;6.754;2022-11-20T13:51:20;100332.09;;;5.10;88.17
28004;BME280;15330;51.234;6.754;2022-11-20T13:53:58;100333.06;;;4.90;88.98
28004;BME280;15330;51.234;6.754;2022-11-20T13:56:54;100334.75;;;4.91;89.19
28004;BME280;15330;51.234;6.754;2022-11-20T14:01:59;100319.56;;;5.03;88.18
28004;BME280;15330;51.234;6.754;2022-11-20T14:04:36;100318.44;;;5.05;88.49
28004;BME280;15330;51.234;6.754;2022-11-20T14:07:08;100319.97;;;5.08;88.65
28004;BME280;15330;51.234;6.754;2022-11-20T14:09:34;100308.09;;;5.02;89.04
28004;BME280;15330;51.234;6.754;2022-11-20T14:12:01;100300.28;;;5.01;89.72
28004;BME280;15330;51.234;6.754;2022-11-20T14:14:28;100296.34;;;5.34;88.04